EZY75JY EGPH-EGJJ
Flight info
| Callsign | EZY75JY |
|---|---|
| Flight time | 1h 30m |
| Altitude | 23000 |
| Route | TLA N864 DCS L612 HON N859 CPT Y321 PEPIS/N0439F360 Q41 SAM N63 LELNA |
| Aircraft | A320/M-SDE3FGHIRWY/LB1 |
Departure
| Time | 2026-05-04 21:15 |
|---|---|
| Airport | Edinburgh Airport (EGPH) |
Arrival
| Time | 2026-05-04 22:45 |
|---|---|
| Airport | Jersey Airport (EGJJ) |
| Time | Latitude | Longitude | Altitude | Speed | Heading |
|---|---|---|---|---|---|
| 2026-05-04 20:34 | 55.94657 | -3.36612 | 117 ft | 0 kts | 89° |
| 2026-05-04 21:04 | 55.94657 | -3.36630 | 113 ft | 3 kts | 87° |
| 2026-05-04 21:04 | 55.94655 | -3.36666 | 114 ft | 3 kts | 78° |
| 2026-05-04 21:05 | 55.94649 | -3.36701 | 112 ft | 3 kts | 62° |
| 2026-05-04 21:05 | 55.94639 | -3.36728 | 114 ft | 3 kts | 27° |
| 2026-05-04 21:05 | 55.94626 | -3.36735 | 112 ft | 1 kts | 360° |
| 2026-05-04 21:05 | 55.94623 | -3.36735 | 112 ft | 0 kts | 360° |
| 2026-05-04 21:08 | 55.94631 | -3.36735 | 116 ft | 3 kts | 360° |
| 2026-05-04 21:08 | 55.94660 | -3.36735 | 116 ft | 7 kts | 359° |
| 2026-05-04 21:09 | 55.94727 | -3.36736 | 116 ft | 11 kts | 358° |
| 2026-05-04 21:09 | 55.94808 | -3.36775 | 116 ft | 13 kts | 353° |
| 2026-05-04 21:09 | 55.94889 | -3.36799 | 112 ft | 11 kts | 335° |
| 2026-05-04 21:09 | 55.94960 | -3.36794 | 116 ft | 12 kts | 49° |
| 2026-05-04 21:10 | 55.95002 | -3.36678 | 116 ft | 10 kts | 58° |
| 2026-05-04 21:10 | 55.95036 | -3.36576 | 115 ft | 9 kts | 59° |
| 2026-05-04 21:10 | 55.95065 | -3.36489 | 114 ft | 8 kts | 59° |
| 2026-05-04 21:10 | 55.95098 | -3.36388 | 115 ft | 12 kts | 59° |
| 2026-05-04 21:11 | 55.95142 | -3.36258 | 114 ft | 12 kts | 59° |
| 2026-05-04 21:11 | 55.95181 | -3.36140 | 114 ft | 10 kts | 59° |
| 2026-05-04 21:11 | 55.95219 | -3.36029 | 116 ft | 13 kts | 59° |
| 2026-05-04 21:11 | 55.95281 | -3.35848 | 112 ft | 19 kts | 58° |
| 2026-05-04 21:12 | 55.95351 | -3.35640 | 114 ft | 17 kts | 59° |
| 2026-05-04 21:12 | 55.95381 | -3.35550 | 113 ft | 7 kts | 59° |
| 2026-05-04 21:12 | 55.95398 | -3.35501 | 115 ft | 7 kts | 58° |
| 2026-05-04 21:12 | 55.95433 | -3.35415 | 115 ft | 9 kts | 36° |
| 2026-05-04 21:13 | 55.95494 | -3.35435 | 113 ft | 0 kts | 328° |
| 2026-05-04 21:13 | 55.95509 | -3.35452 | 113 ft | 5 kts | 328° |
| 2026-05-04 21:14 | 55.95539 | -3.35485 | 114 ft | 10 kts | 328° |
| 2026-05-04 21:14 | 55.95563 | -3.35592 | 113 ft | 12 kts | 236° |
| 2026-05-04 21:14 | 55.95554 | -3.35617 | 113 ft | 0 kts | 237° |
| 2026-05-04 21:15 | 55.95489 | -3.35807 | 112 ft | 54 kts | 239° |
| 2026-05-04 21:15 | 55.95027 | -3.37171 | 112 ft | 133 kts | 239° |
| 2026-05-04 21:15 | 55.94487 | -3.38805 | 253 ft | 163 kts | 242° |
| 2026-05-04 21:15 | 55.93911 | -3.40537 | 956 ft | 163 kts | 239° |
| 2026-05-04 21:16 | 55.93505 | -3.41711 | 1405 ft | 168 kts | 241° |
| 2026-05-04 21:16 | 55.92857 | -3.43579 | 1771 ft | 190 kts | 241° |
| 2026-05-04 21:16 | 55.92113 | -3.45720 | 2067 ft | 217 kts | 241° |
| 2026-05-04 21:16 | 55.91275 | -3.48130 | 2561 ft | 240 kts | 241° |
| 2026-05-04 21:17 | 55.90481 | -3.50830 | 3233 ft | 250 kts | 256° |
| 2026-05-04 21:17 | 55.90134 | -3.53862 | 4162 ft | 252 kts | 261° |
| 2026-05-04 21:17 | 55.89820 | -3.56962 | 5042 ft | 256 kts | 262° |
| 2026-05-04 21:17 | 55.89510 | -3.60116 | 5926 ft | 260 kts | 262° |
| 2026-05-04 21:18 | 55.89198 | -3.63313 | 6778 ft | 264 kts | 262° |
| 2026-05-04 21:18 | 55.88880 | -3.66552 | 7625 ft | 266 kts | 261° |
| 2026-05-04 21:18 | 55.88559 | -3.69764 | 8480 ft | 268 kts | 261° |
| 2026-05-04 21:18 | 55.88229 | -3.73052 | 9353 ft | 270 kts | 261° |
| 2026-05-04 21:19 | 55.87896 | -3.76361 | 10184 ft | 273 kts | 261° |
| 2026-05-04 21:19 | 55.87551 | -3.79816 | 10513 ft | 295 kts | 261° |
| 2026-05-04 21:19 | 55.87184 | -3.83533 | 10856 ft | 312 kts | 261° |
| 2026-05-04 21:19 | 55.86803 | -3.87384 | 11524 ft | 318 kts | 261° |
| 2026-05-04 21:20 | 55.86416 | -3.91286 | 12257 ft | 322 kts | 261° |
| 2026-05-04 21:20 | 55.86020 | -3.95228 | 13003 ft | 325 kts | 261° |
| 2026-05-04 21:20 | 55.85623 | -3.99169 | 13715 ft | 330 kts | 261° |
| 2026-05-04 21:20 | 55.85215 | -4.03200 | 14376 ft | 333 kts | 261° |
| 2026-05-04 21:21 | 55.84801 | -4.07272 | 15030 ft | 335 kts | 261° |
| 2026-05-04 21:21 | 55.84156 | -4.11270 | 15681 ft | 340 kts | 247° |
| 2026-05-04 21:21 | 55.82826 | -4.14793 | 16310 ft | 348 kts | 229° |
| 2026-05-04 21:21 | 55.80927 | -4.17524 | 16957 ft | 355 kts | 219° |
| 2026-05-04 21:22 | 55.78907 | -4.20066 | 17606 ft | 357 kts | 219° |
| 2026-05-04 21:22 | 55.76834 | -4.22541 | 18243 ft | 362 kts | 212° |
| 2026-05-04 21:22 | 55.74467 | -4.24047 | 18777 ft | 374 kts | 194° |
| 2026-05-04 21:22 | 55.71840 | -4.24106 | 19315 ft | 386 kts | 174° |
| 2026-05-04 21:23 | 55.69286 | -4.22510 | 19846 ft | 397 kts | 152° |
| 2026-05-04 21:23 | 55.67041 | -4.19601 | 20394 ft | 402 kts | 144° |
| 2026-05-04 21:23 | 55.64843 | -4.16504 | 20937 ft | 405 kts | 144° |
| 2026-05-04 21:23 | 55.62638 | -4.13371 | 21463 ft | 408 kts | 144° |
| 2026-05-04 21:24 | 55.60417 | -4.10209 | 21997 ft | 411 kts | 144° |
| 2026-05-04 21:24 | 55.58178 | -4.07032 | 22523 ft | 414 kts | 144° |
| 2026-05-04 21:24 | 55.55914 | -4.03841 | 22955 ft | 418 kts | 145° |
| 2026-05-04 21:24 | 55.53675 | -4.00702 | 23043 ft | 412 kts | 145° |
| 2026-05-04 21:25 | 55.51452 | -3.97593 | 23063 ft | 405 kts | 145° |
| 2026-05-04 21:25 | 55.49245 | -3.94517 | 23065 ft | 403 kts | 145° |
| 2026-05-04 21:25 | 55.47045 | -3.91462 | 23064 ft | 403 kts | 146° |
| 2026-05-04 21:25 | 55.44846 | -3.88417 | 23057 ft | 401 kts | 145° |
| 2026-05-04 21:26 | 55.42657 | -3.85387 | 23065 ft | 400 kts | 145° |
| 2026-05-04 21:26 | 55.40473 | -3.82365 | 23068 ft | 399 kts | 145° |
| 2026-05-04 21:26 | 55.38290 | -3.79344 | 23067 ft | 399 kts | 145° |
| 2026-05-04 21:26 | 55.36108 | -3.76326 | 23065 ft | 399 kts | 145° |
| 2026-05-04 21:27 | 55.33956 | -3.73355 | 23065 ft | 399 kts | 145° |
| 2026-05-04 21:27 | 55.31774 | -3.70343 | 23065 ft | 399 kts | 145° |
| 2026-05-04 21:27 | 55.29591 | -3.67341 | 23068 ft | 399 kts | 145° |
| 2026-05-04 21:27 | 55.27405 | -3.64338 | 23067 ft | 399 kts | 145° |
| 2026-05-04 21:28 | 55.25220 | -3.61337 | 23064 ft | 399 kts | 145° |
| 2026-05-04 21:28 | 55.23035 | -3.58345 | 23064 ft | 399 kts | 145° |
| 2026-05-04 21:28 | 55.20847 | -3.55355 | 23051 ft | 399 kts | 145° |
| 2026-05-04 21:28 | 55.18660 | -3.52373 | 23059 ft | 398 kts | 145° |
| 2026-05-04 21:29 | 55.16477 | -3.49397 | 23062 ft | 398 kts | 145° |
| 2026-05-04 21:29 | 55.14325 | -3.46460 | 23065 ft | 398 kts | 145° |
| 2026-05-04 21:29 | 55.12142 | -3.43483 | 23067 ft | 398 kts | 145° |
| 2026-05-04 21:29 | 55.09961 | -3.40513 | 23069 ft | 398 kts | 145° |
| 2026-05-04 21:30 | 55.07697 | -3.37786 | 23072 ft | 394 kts | 154° |
| 2026-05-04 21:30 | 55.05208 | -3.35849 | 23072 ft | 390 kts | 165° |
| 2026-05-04 21:30 | 55.02592 | -3.34764 | 23071 ft | 385 kts | 176° |
| 2026-05-04 21:30 | 54.99938 | -3.34497 | 23070 ft | 381 kts | 183° |
| 2026-05-04 21:31 | 54.94626 | -3.34430 | 23049 ft | 382 kts | 182° |
| 2026-05-04 21:31 | 54.92004 | -3.34385 | 23048 ft | 382 kts | 182° |
| 2026-05-04 21:31 | 54.89340 | -3.34335 | 23055 ft | 383 kts | 182° |
| 2026-05-04 21:32 | 54.86674 | -3.34289 | 23057 ft | 383 kts | 182° |
| 2026-05-04 21:32 | 54.84005 | -3.34246 | 23059 ft | 384 kts | 182° |
| 2026-05-04 21:32 | 54.81335 | -3.34206 | 23062 ft | 384 kts | 182° |
| 2026-05-04 21:32 | 54.78664 | -3.34166 | 23068 ft | 384 kts | 182° |
| 2026-05-04 21:33 | 54.75990 | -3.34127 | 23071 ft | 384 kts | 182° |
| 2026-05-04 21:33 | 54.73317 | -3.33886 | 23073 ft | 386 kts | 174° |
| 2026-05-04 21:33 | 54.70725 | -3.32851 | 23075 ft | 390 kts | 163° |
| 2026-05-04 21:33 | 54.68212 | -3.31077 | 23068 ft | 391 kts | 158° |
| 2026-05-04 21:34 | 54.65722 | -3.29196 | 23070 ft | 391 kts | 158° |
| 2026-05-04 21:34 | 54.63230 | -3.27322 | 23072 ft | 391 kts | 158° |
| 2026-05-04 21:34 | 54.60733 | -3.25450 | 23073 ft | 391 kts | 158° |
| 2026-05-04 21:34 | 54.58238 | -3.23583 | 23074 ft | 391 kts | 158° |
| 2026-05-04 21:35 | 54.55742 | -3.21720 | 23081 ft | 391 kts | 158° |
| 2026-05-04 21:35 | 54.53244 | -3.19861 | 23079 ft | 391 kts | 158° |
| 2026-05-04 21:35 | 54.50783 | -3.18031 | 23079 ft | 391 kts | 158° |
| 2026-05-04 21:35 | 54.48286 | -3.16170 | 23075 ft | 391 kts | 158° |
| 2026-05-04 21:36 | 54.45792 | -3.14312 | 23071 ft | 391 kts | 158° |
| 2026-05-04 21:36 | 54.43296 | -3.12456 | 23075 ft | 391 kts | 157° |
| 2026-05-04 21:36 | 54.40802 | -3.10602 | 23075 ft | 390 kts | 157° |
| 2026-05-04 21:36 | 54.38309 | -3.08749 | 23077 ft | 390 kts | 157° |
| 2026-05-04 21:37 | 54.35818 | -3.06901 | 23075 ft | 390 kts | 157° |
| 2026-05-04 21:37 | 54.33327 | -3.05064 | 23076 ft | 390 kts | 157° |
| 2026-05-04 21:37 | 54.30835 | -3.03231 | 23076 ft | 390 kts | 158° |
| 2026-05-04 21:37 | 54.28379 | -3.01426 | 23075 ft | 389 kts | 157° |
| 2026-05-04 21:38 | 54.25890 | -2.99596 | 23078 ft | 389 kts | 157° |
| 2026-05-04 21:38 | 54.23401 | -2.97768 | 23076 ft | 389 kts | 158° |
| 2026-05-04 21:38 | 54.20913 | -2.95941 | 23062 ft | 389 kts | 157° |
| 2026-05-04 21:38 | 54.18425 | -2.94120 | 23066 ft | 389 kts | 157° |
| 2026-05-04 21:39 | 54.15939 | -2.92303 | 23075 ft | 388 kts | 157° |
| 2026-05-04 21:39 | 54.13457 | -2.90489 | 23081 ft | 388 kts | 157° |
| 2026-05-04 21:39 | 54.10978 | -2.88677 | 23079 ft | 388 kts | 157° |
| 2026-05-04 21:39 | 54.08499 | -2.86867 | 23076 ft | 388 kts | 157° |
| 2026-05-04 21:40 | 54.06053 | -2.85084 | 23072 ft | 388 kts | 157° |
| 2026-05-04 21:40 | 54.03571 | -2.83283 | 23070 ft | 388 kts | 157° |
| 2026-05-04 21:40 | 54.01090 | -2.81485 | 23074 ft | 388 kts | 157° |
| 2026-05-04 21:40 | 53.98610 | -2.79685 | 23077 ft | 388 kts | 157° |
| 2026-05-04 21:41 | 53.96083 | -2.77856 | 23169 ft | 402 kts | 157° |
| 2026-05-04 21:41 | 53.93487 | -2.75979 | 23571 ft | 407 kts | 157° |
| 2026-05-04 21:41 | 53.90885 | -2.74095 | 24090 ft | 407 kts | 156° |
| 2026-05-04 21:41 | 53.88283 | -2.72211 | 24615 ft | 406 kts | 156° |
| 2026-05-04 21:42 | 53.85686 | -2.70335 | 25127 ft | 406 kts | 156° |
| 2026-05-04 21:42 | 53.83121 | -2.68492 | 25622 ft | 406 kts | 156° |
| 2026-05-04 21:42 | 53.80521 | -2.66634 | 26134 ft | 405 kts | 156° |
| 2026-05-04 21:42 | 53.77925 | -2.64783 | 26674 ft | 404 kts | 156° |
| 2026-05-04 21:43 | 53.75329 | -2.62930 | 27024 ft | 405 kts | 156° |
| 2026-05-04 21:43 | 53.72735 | -2.61073 | 27070 ft | 405 kts | 156° |
| 2026-05-04 21:43 | 53.70147 | -2.59214 | 27077 ft | 403 kts | 156° |
| 2026-05-04 21:43 | 53.67580 | -2.57369 | 27076 ft | 400 kts | 156° |
| 2026-05-04 21:44 | 53.65018 | -2.55536 | 27074 ft | 399 kts | 156° |
| 2026-05-04 21:44 | 53.62460 | -2.53715 | 27074 ft | 399 kts | 156° |
| 2026-05-04 21:44 | 53.59937 | -2.51927 | 27074 ft | 399 kts | 156° |
| 2026-05-04 21:44 | 53.57376 | -2.50114 | 27073 ft | 399 kts | 156° |
| 2026-05-04 21:45 | 53.54816 | -2.48302 | 27075 ft | 399 kts | 156° |
| 2026-05-04 21:45 | 53.52261 | -2.46493 | 27075 ft | 399 kts | 156° |
| 2026-05-04 21:45 | 53.49700 | -2.44680 | 27075 ft | 399 kts | 156° |
| 2026-05-04 21:45 | 53.47144 | -2.42872 | 27076 ft | 399 kts | 156° |
| 2026-05-04 21:46 | 53.44587 | -2.41062 | 27076 ft | 399 kts | 156° |
| 2026-05-04 21:46 | 53.42030 | -2.39256 | 27084 ft | 399 kts | 156° |
| 2026-05-04 21:46 | 53.39507 | -2.37481 | 27083 ft | 399 kts | 156° |
| 2026-05-04 21:46 | 53.36947 | -2.35687 | 27082 ft | 399 kts | 156° |
| 2026-05-04 21:47 | 53.34390 | -2.33898 | 27079 ft | 399 kts | 156° |
| 2026-05-04 21:47 | 53.31828 | -2.32109 | 27080 ft | 399 kts | 156° |
| 2026-05-04 21:47 | 53.29270 | -2.30324 | 27079 ft | 399 kts | 156° |
| 2026-05-04 21:47 | 53.26712 | -2.28537 | 27078 ft | 398 kts | 156° |
| 2026-05-04 21:48 | 53.24155 | -2.26750 | 27078 ft | 398 kts | 156° |
| 2026-05-04 21:48 | 53.21600 | -2.24963 | 27082 ft | 398 kts | 156° |
| 2026-05-04 21:48 | 53.19048 | -2.23186 | 27083 ft | 398 kts | 156° |
| 2026-05-04 21:48 | 53.16527 | -2.21440 | 27083 ft | 397 kts | 156° |
| 2026-05-04 21:49 | 53.13972 | -2.19668 | 27087 ft | 397 kts | 156° |
| 2026-05-04 21:49 | 53.11422 | -2.17900 | 27083 ft | 397 kts | 156° |
| 2026-05-04 21:49 | 53.08872 | -2.16131 | 27082 ft | 397 kts | 156° |
| 2026-05-04 21:49 | 53.06321 | -2.14364 | 27078 ft | 397 kts | 156° |
| 2026-05-04 21:50 | 53.03773 | -2.12604 | 27074 ft | 396 kts | 156° |
| 2026-05-04 21:50 | 53.01227 | -2.10848 | 27068 ft | 396 kts | 156° |
| 2026-05-04 21:50 | 52.98682 | -2.09093 | 27072 ft | 396 kts | 158° |
| 2026-05-04 21:50 | 52.96139 | -2.07340 | 27079 ft | 395 kts | 158° |
| 2026-05-04 21:51 | 52.93638 | -2.05622 | 27087 ft | 394 kts | 158° |
| 2026-05-04 21:51 | 52.91108 | -2.03890 | 27086 ft | 393 kts | 158° |
| 2026-05-04 21:51 | 52.88579 | -2.02158 | 27085 ft | 393 kts | 158° |
| 2026-05-04 21:51 | 52.86052 | -2.00425 | 27066 ft | 393 kts | 159° |
| 2026-05-04 21:52 | 52.83527 | -1.98692 | 27064 ft | 393 kts | 159° |
| 2026-05-04 21:52 | 52.80998 | -1.96960 | 27062 ft | 393 kts | 159° |
| 2026-05-04 21:52 | 52.78471 | -1.95234 | 27060 ft | 393 kts | 159° |
| 2026-05-04 21:52 | 52.75938 | -1.93512 | 27059 ft | 394 kts | 159° |
| 2026-05-04 21:53 | 52.73407 | -1.91796 | 27064 ft | 393 kts | 160° |
| 2026-05-04 21:53 | 52.70913 | -1.90106 | 27073 ft | 392 kts | 160° |
| 2026-05-04 21:53 | 52.68393 | -1.88397 | 27078 ft | 392 kts | 160° |
| 2026-05-04 21:53 | 52.65876 | -1.86686 | 27089 ft | 391 kts | 160° |
| 2026-05-04 21:54 | 52.63360 | -1.84978 | 27094 ft | 391 kts | 160° |
| 2026-05-04 21:54 | 52.60846 | -1.83277 | 27096 ft | 390 kts | 160° |
| 2026-05-04 21:54 | 52.58335 | -1.81583 | 27095 ft | 390 kts | 160° |
| 2026-05-04 21:54 | 52.55827 | -1.79894 | 27094 ft | 390 kts | 160° |
| 2026-05-04 21:55 | 52.53321 | -1.78206 | 27094 ft | 389 kts | 160° |
| 2026-05-04 21:55 | 52.50849 | -1.76543 | 27088 ft | 389 kts | 160° |
| 2026-05-04 21:55 | 52.48344 | -1.74859 | 27085 ft | 389 kts | 160° |
| 2026-05-04 21:55 | 52.45842 | -1.73176 | 27083 ft | 389 kts | 160° |
| 2026-05-04 21:56 | 52.43336 | -1.71494 | 27083 ft | 389 kts | 160° |
| 2026-05-04 21:56 | 52.40831 | -1.69821 | 27080 ft | 389 kts | 160° |
| 2026-05-04 21:56 | 52.38328 | -1.68156 | 27078 ft | 389 kts | 160° |
| 2026-05-04 21:56 | 52.35823 | -1.66492 | 27077 ft | 388 kts | 160° |
| 2026-05-04 21:57 | 52.33290 | -1.64956 | 27072 ft | 388 kts | 163° |
| 2026-05-04 21:57 | 52.30730 | -1.63573 | 27069 ft | 387 kts | 164° |
| 2026-05-04 21:57 | 52.28155 | -1.62274 | 27049 ft | 387 kts | 165° |
| 2026-05-04 21:57 | 52.25575 | -1.61004 | 27048 ft | 387 kts | 165° |
| 2026-05-04 21:58 | 52.23033 | -1.59748 | 27051 ft | 387 kts | 164° |
| 2026-05-04 21:58 | 52.20459 | -1.58452 | 27051 ft | 387 kts | 164° |
| 2026-05-04 21:58 | 52.17891 | -1.57133 | 27051 ft | 387 kts | 164° |
| 2026-05-04 21:58 | 52.15329 | -1.55802 | 27051 ft | 387 kts | 163° |
| 2026-05-04 21:59 | 52.12767 | -1.54465 | 27051 ft | 387 kts | 163° |
| 2026-05-04 21:59 | 52.10204 | -1.53130 | 27051 ft | 387 kts | 163° |
| 2026-05-04 21:59 | 52.07643 | -1.51800 | 27052 ft | 387 kts | 163° |
| 2026-05-04 21:59 | 52.05081 | -1.50471 | 27051 ft | 387 kts | 164° |
| 2026-05-04 22:00 | 52.02519 | -1.49144 | 27055 ft | 386 kts | 163° |
| 2026-05-04 22:00 | 51.99996 | -1.47839 | 27065 ft | 385 kts | 163° |
| 2026-05-04 22:00 | 51.97446 | -1.46524 | 27063 ft | 384 kts | 164° |
| 2026-05-04 22:00 | 51.94901 | -1.45214 | 27070 ft | 383 kts | 164° |
| 2026-05-04 22:01 | 51.92366 | -1.43912 | 27081 ft | 382 kts | 164° |
| 2026-05-04 22:01 | 51.89838 | -1.42619 | 27081 ft | 381 kts | 164° |
| 2026-05-04 22:01 | 51.87316 | -1.41332 | 27080 ft | 380 kts | 164° |
| 2026-05-04 22:01 | 51.84799 | -1.40050 | 27071 ft | 379 kts | 164° |
| 2026-05-04 22:02 | 51.82284 | -1.38772 | 27075 ft | 379 kts | 164° |
| 2026-05-04 22:02 | 51.79772 | -1.37490 | 27075 ft | 378 kts | 164° |
| 2026-05-04 22:02 | 51.77266 | -1.36208 | 27076 ft | 378 kts | 164° |
| 2026-05-04 22:02 | 51.74760 | -1.34930 | 27072 ft | 377 kts | 164° |
| 2026-05-04 22:03 | 51.72257 | -1.33658 | 27075 ft | 377 kts | 164° |
| 2026-05-04 22:03 | 51.69787 | -1.32407 | 27074 ft | 377 kts | 164° |
| 2026-05-04 22:03 | 51.67287 | -1.31138 | 27070 ft | 377 kts | 164° |
| 2026-05-04 22:03 | 51.64791 | -1.29872 | 27070 ft | 376 kts | 164° |
| 2026-05-04 22:04 | 51.62291 | -1.28606 | 27068 ft | 376 kts | 164° |
| 2026-05-04 22:04 | 51.59797 | -1.27344 | 27066 ft | 376 kts | 164° |
| 2026-05-04 22:04 | 51.57300 | -1.26085 | 27063 ft | 376 kts | 164° |
| 2026-05-04 22:04 | 51.54806 | -1.24827 | 27063 ft | 376 kts | 164° |
| 2026-05-04 22:05 | 51.52310 | -1.23571 | 27059 ft | 376 kts | 164° |
| 2026-05-04 22:05 | 51.49790 | -1.22503 | 27058 ft | 374 kts | 171° |
| 2026-05-04 22:05 | 51.47202 | -1.22141 | 27058 ft | 373 kts | 181° |
| 2026-05-04 22:05 | 51.44643 | -1.22321 | 27054 ft | 373 kts | 183° |
| 2026-05-04 22:06 | 51.42053 | -1.22537 | 27050 ft | 373 kts | 183° |
| 2026-05-04 22:06 | 51.39459 | -1.22755 | 27049 ft | 373 kts | 183° |
| 2026-05-04 22:06 | 51.36866 | -1.22970 | 27048 ft | 373 kts | 183° |
| 2026-05-04 22:06 | 51.34274 | -1.23184 | 27047 ft | 373 kts | 183° |
| 2026-05-04 22:07 | 51.31679 | -1.23395 | 27031 ft | 373 kts | 184° |
| 2026-05-04 22:07 | 51.29082 | -1.23608 | 27027 ft | 374 kts | 184° |
| 2026-05-04 22:07 | 51.26483 | -1.23820 | 27026 ft | 374 kts | 184° |
| 2026-05-04 22:07 | 51.23880 | -1.24033 | 27025 ft | 374 kts | 184° |
| 2026-05-04 22:08 | 51.21277 | -1.24247 | 27025 ft | 375 kts | 184° |
| 2026-05-04 22:08 | 51.18699 | -1.24787 | 27026 ft | 374 kts | 193° |
| 2026-05-04 22:08 | 51.16211 | -1.25819 | 27028 ft | 374 kts | 195° |
| 2026-05-04 22:08 | 51.13695 | -1.26885 | 27025 ft | 375 kts | 195° |
| 2026-05-04 22:09 | 51.11175 | -1.27948 | 27026 ft | 375 kts | 195° |
| 2026-05-04 22:09 | 51.08653 | -1.29010 | 27026 ft | 375 kts | 195° |
| 2026-05-04 22:09 | 51.06132 | -1.30070 | 27026 ft | 375 kts | 195° |
| 2026-05-04 22:09 | 51.03611 | -1.31128 | 27027 ft | 375 kts | 194° |
| 2026-05-04 22:10 | 51.01089 | -1.32181 | 27025 ft | 375 kts | 194° |
| 2026-05-04 22:10 | 50.98567 | -1.33233 | 27027 ft | 375 kts | 194° |
| 2026-05-04 22:10 | 50.96053 | -1.34334 | 27026 ft | 375 kts | 199° |
| 2026-05-04 22:10 | 50.93664 | -1.35975 | 27028 ft | 375 kts | 206° |
| 2026-05-04 22:11 | 50.91336 | -1.37844 | 27029 ft | 375 kts | 206° |
| 2026-05-04 22:11 | 50.89008 | -1.39708 | 27028 ft | 375 kts | 206° |
| 2026-05-04 22:11 | 50.86712 | -1.41541 | 27039 ft | 375 kts | 206° |
| 2026-05-04 22:11 | 50.84383 | -1.43395 | 27042 ft | 374 kts | 206° |
| 2026-05-04 22:12 | 50.82058 | -1.45244 | 27044 ft | 374 kts | 206° |
| 2026-05-04 22:12 | 50.79736 | -1.47092 | 27043 ft | 373 kts | 206° |
| 2026-05-04 22:12 | 50.77416 | -1.48937 | 27042 ft | 373 kts | 206° |
| 2026-05-04 22:12 | 50.75100 | -1.50778 | 27043 ft | 373 kts | 206° |
| 2026-05-04 22:13 | 50.72783 | -1.52621 | 27039 ft | 373 kts | 206° |
| 2026-05-04 22:13 | 50.70468 | -1.54458 | 27039 ft | 372 kts | 206° |
| 2026-05-04 22:13 | 50.68154 | -1.56289 | 27034 ft | 372 kts | 206° |
| 2026-05-04 22:13 | 50.65852 | -1.58110 | 26830 ft | 366 kts | 205° |
| 2026-05-04 22:14 | 50.63627 | -1.59867 | 26586 ft | 360 kts | 205° |
| 2026-05-04 22:14 | 50.61400 | -1.61622 | 26325 ft | 356 kts | 205° |
| 2026-05-04 22:14 | 50.59193 | -1.63360 | 26071 ft | 354 kts | 205° |
| 2026-05-04 22:14 | 50.56988 | -1.65092 | 25816 ft | 354 kts | 205° |
| 2026-05-04 22:15 | 50.54789 | -1.66820 | 25564 ft | 353 kts | 205° |
| 2026-05-04 22:15 | 50.52594 | -1.68541 | 25319 ft | 353 kts | 205° |
| 2026-05-04 22:15 | 50.50399 | -1.70260 | 25073 ft | 352 kts | 205° |
| 2026-05-04 22:15 | 50.48207 | -1.71980 | 24832 ft | 352 kts | 205° |
| 2026-05-04 22:16 | 50.46019 | -1.73694 | 24584 ft | 352 kts | 205° |
| 2026-05-04 22:16 | 50.43829 | -1.75407 | 24338 ft | 351 kts | 205° |
| 2026-05-04 22:16 | 50.41672 | -1.77095 | 24109 ft | 351 kts | 205° |
| 2026-05-04 22:16 | 50.39487 | -1.78803 | 23873 ft | 351 kts | 204° |
| 2026-05-04 22:17 | 50.37307 | -1.80506 | 23646 ft | 350 kts | 204° |
| 2026-05-04 22:17 | 50.35128 | -1.82206 | 23374 ft | 349 kts | 204° |
| 2026-05-04 22:17 | 50.32953 | -1.83897 | 23096 ft | 349 kts | 204° |
| 2026-05-04 22:17 | 50.30783 | -1.85580 | 22829 ft | 348 kts | 204° |
| 2026-05-04 22:18 | 50.28615 | -1.87256 | 22555 ft | 347 kts | 204° |
| 2026-05-04 22:18 | 50.26452 | -1.88926 | 22285 ft | 346 kts | 204° |
| 2026-05-04 22:18 | 50.24293 | -1.90591 | 22018 ft | 345 kts | 202° |
| 2026-05-04 22:18 | 50.22132 | -1.92090 | 21746 ft | 344 kts | 201° |
| 2026-05-04 22:19 | 50.19938 | -1.93565 | 21493 ft | 343 kts | 201° |
| 2026-05-04 22:19 | 50.17750 | -1.95034 | 21241 ft | 342 kts | 200° |
| 2026-05-04 22:19 | 50.15572 | -1.96501 | 20981 ft | 340 kts | 201° |
| 2026-05-04 22:19 | 50.13407 | -1.97960 | 20722 ft | 339 kts | 201° |
| 2026-05-04 22:20 | 50.11244 | -1.99415 | 20472 ft | 338 kts | 201° |
| 2026-05-04 22:20 | 50.09089 | -2.00861 | 20219 ft | 337 kts | 201° |
| 2026-05-04 22:20 | 50.06939 | -2.02301 | 20024 ft | 336 kts | 201° |
| 2026-05-04 22:20 | 50.04820 | -2.03718 | 20014 ft | 336 kts | 201° |
| 2026-05-04 22:21 | 50.02670 | -2.05155 | 20017 ft | 337 kts | 201° |
| 2026-05-04 22:21 | 50.00529 | -2.06583 | 19765 ft | 334 kts | 200° |
| 2026-05-04 22:21 | 49.98399 | -2.08003 | 19335 ft | 333 kts | 201° |
| 2026-05-04 22:21 | 49.96274 | -2.09416 | 18921 ft | 332 kts | 201° |
| 2026-05-04 22:22 | 49.94154 | -2.10818 | 18521 ft | 330 kts | 201° |
| 2026-05-04 22:22 | 49.92038 | -2.12199 | 18100 ft | 329 kts | 201° |
| 2026-05-04 22:22 | 49.89929 | -2.13570 | 17658 ft | 328 kts | 200° |
| 2026-05-04 22:22 | 49.87828 | -2.14934 | 17219 ft | 327 kts | 200° |
| 2026-05-04 22:23 | 49.85735 | -2.16293 | 16808 ft | 326 kts | 200° |
| 2026-05-04 22:23 | 49.83678 | -2.17628 | 16395 ft | 324 kts | 200° |
| 2026-05-04 22:23 | 49.81600 | -2.18977 | 16005 ft | 323 kts | 200° |
| 2026-05-04 22:23 | 49.79528 | -2.20321 | 15608 ft | 322 kts | 200° |
| 2026-05-04 22:24 | 49.77463 | -2.21660 | 15225 ft | 321 kts | 200° |
| 2026-05-04 22:24 | 49.75410 | -2.23012 | 14842 ft | 321 kts | 204° |
| 2026-05-04 22:24 | 49.73477 | -2.24736 | 14467 ft | 321 kts | 210° |
| 2026-05-04 22:24 | 49.71593 | -2.26585 | 14108 ft | 320 kts | 210° |
| 2026-05-04 22:25 | 49.69743 | -2.28449 | 13516 ft | 319 kts | 211° |
| 2026-05-04 22:25 | 49.67917 | -2.30291 | 13140 ft | 316 kts | 211° |
| 2026-05-04 22:25 | 49.66081 | -2.32134 | 12774 ft | 314 kts | 211° |
| 2026-05-04 22:25 | 49.64253 | -2.33958 | 12406 ft | 312 kts | 211° |
| 2026-05-04 22:26 | 49.62438 | -2.35760 | 12039 ft | 309 kts | 211° |
| 2026-05-04 22:26 | 49.60569 | -2.37363 | 11675 ft | 305 kts | 202° |
| 2026-05-04 22:26 | 49.58625 | -2.38649 | 11304 ft | 303 kts | 201° |
| 2026-05-04 22:26 | 49.56680 | -2.39885 | 10935 ft | 301 kts | 201° |
| 2026-05-04 22:27 | 49.54745 | -2.41099 | 10580 ft | 299 kts | 201° |
| 2026-05-04 22:27 | 49.52854 | -2.42274 | 10334 ft | 293 kts | 201° |
| 2026-05-04 22:27 | 49.50980 | -2.43436 | 10061 ft | 289 kts | 201° |
| 2026-05-04 22:27 | 49.49122 | -2.44581 | 9696 ft | 287 kts | 200° |
| 2026-05-04 22:28 | 49.47278 | -2.45720 | 9420 ft | 281 kts | 200° |
| 2026-05-04 22:28 | 49.45497 | -2.46832 | 9292 ft | 271 kts | 200° |
| 2026-05-04 22:28 | 49.43786 | -2.47909 | 9156 ft | 261 kts | 200° |
| 2026-05-04 22:28 | 49.42141 | -2.48948 | 9018 ft | 250 kts | 200° |
| 2026-05-04 22:29 | 49.40560 | -2.49943 | 8596 ft | 243 kts | 201° |
| 2026-05-04 22:29 | 49.39016 | -2.50914 | 8182 ft | 243 kts | 201° |
| 2026-05-04 22:29 | 49.37460 | -2.51886 | 7873 ft | 241 kts | 200° |
| 2026-05-04 22:29 | 49.35911 | -2.52859 | 7531 ft | 240 kts | 201° |
| 2026-05-04 22:30 | 49.34340 | -2.53665 | 7206 ft | 236 kts | 183° |
| 2026-05-04 22:30 | 49.32706 | -2.53720 | 6855 ft | 235 kts | 179° |
| 2026-05-04 22:30 | 49.31071 | -2.53822 | 6527 ft | 235 kts | 180° |
| 2026-05-04 22:30 | 49.29440 | -2.53944 | 6199 ft | 234 kts | 181° |
| 2026-05-04 22:31 | 49.27826 | -2.54062 | 5745 ft | 231 kts | 180° |
| 2026-05-04 22:31 | 49.26241 | -2.54185 | 5224 ft | 231 kts | 181° |
| 2026-05-04 22:31 | 49.24645 | -2.54296 | 4730 ft | 229 kts | 181° |
| 2026-05-04 22:31 | 49.23053 | -2.54374 | 4269 ft | 229 kts | 174° |
| 2026-05-04 22:32 | 49.21581 | -2.53655 | 3892 ft | 221 kts | 142° |
| 2026-05-04 22:32 | 49.20631 | -2.51910 | 3525 ft | 208 kts | 115° |
| 2026-05-04 22:32 | 49.20039 | -2.49969 | 3249 ft | 198 kts | 110° |
| 2026-05-04 22:32 | 49.19494 | -2.48029 | 2955 ft | 197 kts | 112° |
| 2026-05-04 22:33 | 49.18962 | -2.46098 | 2657 ft | 197 kts | 109° |
| 2026-05-04 22:33 | 49.18721 | -2.44084 | 2352 ft | 192 kts | 83° |
| 2026-05-04 22:33 | 49.18885 | -2.42061 | 2087 ft | 191 kts | 81° |
| 2026-05-04 22:33 | 49.19057 | -2.40098 | 2021 ft | 184 kts | 81° |
| 2026-05-04 22:34 | 49.19214 | -2.38256 | 2003 ft | 165 kts | 81° |
| 2026-05-04 22:34 | 49.19353 | -2.36622 | 1994 ft | 149 kts | 79° |
| 2026-05-04 22:34 | 49.19486 | -2.35075 | 1996 ft | 146 kts | 79° |
| 2026-05-04 22:34 | 49.19616 | -2.33543 | 1912 ft | 145 kts | 81° |
| 2026-05-04 22:35 | 49.19745 | -2.32030 | 1791 ft | 141 kts | 79° |
| 2026-05-04 22:35 | 49.19871 | -2.30542 | 1600 ft | 141 kts | 79° |
| 2026-05-04 22:35 | 49.19995 | -2.29075 | 1419 ft | 138 kts | 79° |
| 2026-05-04 22:35 | 49.20116 | -2.27637 | 1225 ft | 138 kts | 78° |
| 2026-05-04 22:36 | 49.20238 | -2.26188 | 1038 ft | 138 kts | 79° |
| 2026-05-04 22:36 | 49.20359 | -2.24738 | 854 ft | 137 kts | 79° |
| 2026-05-04 22:36 | 49.20475 | -2.23299 | 656 ft | 136 kts | 79° |
| 2026-05-04 22:36 | 49.20602 | -2.21872 | 488 ft | 136 kts | 77° |
| 2026-05-04 22:37 | 49.20723 | -2.20440 | 317 ft | 136 kts | 79° |
| 2026-05-04 22:37 | 49.20829 | -2.19120 | 310 ft | 122 kts | 78° |
| 2026-05-04 22:37 | 49.20949 | -2.17676 | 760 ft | 147 kts | 81° |
| 2026-05-04 22:37 | 49.21083 | -2.16118 | 1567 ft | 153 kts | 78° |
| 2026-05-04 22:38 | 49.21294 | -2.14389 | 2036 ft | 176 kts | 77° |
| 2026-05-04 22:38 | 49.21174 | -2.12410 | 2321 ft | 205 kts | 111° |
| 2026-05-04 22:38 | 49.20190 | -2.10728 | 2784 ft | 223 kts | 148° |
| 2026-05-04 22:38 | 49.18687 | -2.10041 | 2985 ft | 229 kts | 174° |
| 2026-05-04 22:39 | 49.17147 | -2.09999 | 3008 ft | 214 kts | 180° |
| 2026-05-04 22:39 | 49.15681 | -2.10053 | 3009 ft | 209 kts | 180° |
| 2026-05-04 22:39 | 49.14238 | -2.10119 | 3010 ft | 207 kts | 181° |
| 2026-05-04 22:39 | 49.12820 | -2.10223 | 3005 ft | 207 kts | 189° |
| 2026-05-04 22:40 | 49.11554 | -2.11171 | 3011 ft | 206 kts | 228° |
| 2026-05-04 22:40 | 49.10911 | -2.13058 | 3020 ft | 202 kts | 262° |
| 2026-05-04 22:40 | 49.10757 | -2.15182 | 3004 ft | 201 kts | 269° |
| 2026-05-04 22:40 | 49.10698 | -2.17310 | 3013 ft | 201 kts | 270° |
| 2026-05-04 22:41 | 49.10653 | -2.19438 | 3011 ft | 201 kts | 270° |
| 2026-05-04 22:41 | 49.10614 | -2.21565 | 3003 ft | 200 kts | 270° |
| 2026-05-04 22:41 | 49.10591 | -2.23680 | 3002 ft | 199 kts | 271° |
| 2026-05-04 22:41 | 49.10644 | -2.25752 | 2990 ft | 197 kts | 289° |
| 2026-05-04 22:42 | 49.11337 | -2.27457 | 2828 ft | 190 kts | 325° |
| 2026-05-04 22:42 | 49.12546 | -2.28144 | 2547 ft | 187 kts | 355° |
| 2026-05-04 22:42 | 49.13846 | -2.28250 | 2291 ft | 187 kts | 359° |
| 2026-05-04 22:42 | 49.15131 | -2.28260 | 2092 ft | 181 kts | 1° |
| 2026-05-04 22:43 | 49.16341 | -2.28261 | 2003 ft | 168 kts | 1° |
| 2026-05-04 22:43 | 49.17450 | -2.28265 | 1968 ft | 153 kts | 1° |
| 2026-05-04 22:43 | 49.18489 | -2.28265 | 1803 ft | 147 kts | 1° |
| 2026-05-04 22:43 | 49.19504 | -2.28089 | 1433 ft | 150 kts | 17° |
| 2026-05-04 22:44 | 49.20387 | -2.27240 | 1048 ft | 150 kts | 47° |
| 2026-05-04 22:44 | 49.20701 | -2.25825 | 850 ft | 143 kts | 95° |
| 2026-05-04 22:44 | 49.20453 | -2.24344 | 684 ft | 140 kts | 97° |
| 2026-05-04 22:44 | 49.20506 | -2.22895 | 574 ft | 136 kts | 80° |
| 2026-05-04 22:45 | 49.20629 | -2.21463 | 383 ft | 135 kts | 80° |
| 2026-05-04 22:45 | 49.20841 | -2.19067 | 285 ft | 53 kts | 82° |
| 2026-05-04 22:45 | 49.20865 | -2.18736 | 288 ft | 24 kts | 83° |
| 2026-05-04 22:46 | 49.20884 | -2.18505 | 281 ft | 15 kts | 83° |
| 2026-05-04 22:46 | 49.20865 | -2.18399 | 282 ft | 10 kts | 123° |
| 2026-05-04 22:46 | 49.20815 | -2.18380 | 284 ft | 9 kts | 181° |
| 2026-05-04 22:46 | 49.20745 | -2.18454 | 284 ft | 16 kts | 233° |
| 2026-05-04 22:47 | 49.20722 | -2.18621 | 284 ft | 16 kts | 263° |
| 2026-05-04 22:47 | 49.20711 | -2.18791 | 284 ft | 16 kts | 262° |
| 2026-05-04 22:47 | 49.20696 | -2.18955 | 284 ft | 15 kts | 262° |
| 2026-05-04 22:47 | 49.20682 | -2.19114 | 284 ft | 15 kts | 263° |
| 2026-05-04 22:48 | 49.20691 | -2.19265 | 284 ft | 14 kts | 284° |
| 2026-05-04 22:48 | 49.20709 | -2.19415 | 284 ft | 14 kts | 270° |
| 2026-05-04 22:48 | 49.20695 | -2.19559 | 284 ft | 13 kts | 259° |
| 2026-05-04 22:48 | 49.20649 | -2.19665 | 284 ft | 12 kts | 215° |
| 2026-05-04 22:49 | 49.20613 | -2.19758 | 284 ft | 10 kts | 264° |
| 2026-05-04 22:49 | 49.20604 | -2.19881 | 288 ft | 13 kts | 259° |
| 2026-05-04 22:49 | 49.20536 | -2.19930 | 284 ft | 11 kts | 176° |
| 2026-05-04 22:49 | 49.20462 | -2.19919 | 284 ft | 10 kts | 170° |
| 2026-05-04 22:50 | 49.20434 | -2.19843 | 284 ft | 8 kts | 89° |
| 2026-05-04 22:50 | 49.20439 | -2.19763 | 284 ft | 7 kts | 85° |
| 2026-05-04 22:50 | 49.20450 | -2.19687 | 289 ft | 7 kts | 53° |
| 2026-05-04 22:50 | 49.20486 | -2.19678 | 284 ft | 1 kts | 3° |
| 2026-05-04 22:51 | 49.20496 | -2.19677 | 284 ft | 0 kts | 4° |
| 2026-05-04 22:51 | 49.20498 | -2.19677 | 284 ft | 0 kts | 4° |